sensor_id;sensor_type;location;lat;lon;timestamp;P1;durP1;ratioP1;P2;durP2;ratioP2
27558;SDS011;15002;52.028;5.670;2023-01-08T00:02:20;4.05;;;2.88;;
27558;SDS011;15002;52.028;5.670;2023-01-08T00:04:45;4.78;;;3.42;;
27558;SDS011;15002;52.028;5.670;2023-01-08T00:07:11;6.28;;;3.72;;
27558;SDS011;15002;52.028;5.670;2023-01-08T00:09:37;4.32;;;2.95;;
27558;SDS011;15002;52.028;5.670;2023-01-08T00:12:02;5.40;;;3.40;;
27558;SDS011;15002;52.028;5.670;2023-01-08T00:14:29;5.22;;;3.03;;
27558;SDS011;15002;52.028;5.670;2023-01-08T00:16:54;6.15;;;3.50;;
27558;SDS011;15002;52.028;5.670;2023-01-08T00:19:20;3.63;;;2.90;;
27558;SDS011;15002;52.028;5.670;2023-01-08T00:21:46;6.35;;;3.42;;
27558;SDS011;15002;52.028;5.670;2023-01-08T00:24:11;3.72;;;3.05;;
27558;SDS011;15002;52.028;5.670;2023-01-08T00:26:37;5.63;;;3.10;;
27558;SDS011;15002;52.028;5.670;2023-01-08T00:29:03;5.47;;;3.47;;
27558;SDS011;15002;52.028;5.670;2023-01-08T00:31:28;4.00;;;3.15;;
27558;SDS011;15002;52.028;5.670;2023-01-08T00:33:54;5.53;;;3.50;;
27558;SDS011;15002;52.028;5.670;2023-01-08T00:36:19;5.45;;;3.25;;
27558;SDS011;15002;52.028;5.670;2023-01-08T00:38:45;4.55;;;3.47;;
27558;SDS011;15002;52.028;5.670;2023-01-08T00:41:11;3.92;;;3.17;;
27558;SDS011;15002;52.028;5.670;2023-01-08T00:43:39;5.18;;;3.30;;
27558;SDS011;15002;52.028;5.670;2023-01-08T00:46:05;5.00;;;2.95;;
27558;SDS011;15002;52.028;5.670;2023-01-08T00:48:31;5.03;;;2.88;;
27558;SDS011;15002;52.028;5.670;2023-01-08T00:51:01;4.82;;;2.90;;
27558;SDS011;15002;52.028;5.670;2023-01-08T00:53:27;5.78;;;3.17;;
27558;SDS011;15002;52.028;5.670;2023-01-08T00:56:00;4.70;;;3.45;;
27558;SDS011;15002;52.028;5.670;2023-01-08T00:58:27;5.30;;;3.40;;
27558;SDS011;15002;52.028;5.670;2023-01-08T01:00:52;5.38;;;3.38;;
27558;SDS011;15002;52.028;5.670;2023-01-08T01:03:18;3.85;;;3.00;;
27558;SDS011;15002;52.028;5.670;2023-01-08T01:05:44;6.22;;;2.95;;
27558;SDS011;15002;52.028;5.670;2023-01-08T01:08:09;4.90;;;3.00;;
27558;SDS011;15002;52.028;5.670;2023-01-08T01:10:37;6.20;;;3.05;;
27558;SDS011;15002;52.028;5.670;2023-01-08T01:13:03;8.70;;;3.45;;
27558;SDS011;15002;52.028;5.670;2023-01-08T01:15:29;8.50;;;3.72;;
27558;SDS011;15002;52.028;5.670;2023-01-08T01:17:55;3.75;;;2.92;;
27558;SDS011;15002;52.028;5.670;2023-01-08T01:20:20;5.90;;;3.17;;
27558;SDS011;15002;52.028;5.670;2023-01-08T01:22:47;5.97;;;3.17;;
27558;SDS011;15002;52.028;5.670;2023-01-08T01:25:13;5.63;;;3.17;;
27558;SDS011;15002;52.028;5.670;2023-01-08T01:27:39;4.68;;;2.85;;
27558;SDS011;15002;52.028;5.670;2023-01-08T01:30:05;6.28;;;2.90;;
27558;SDS011;15002;52.028;5.670;2023-01-08T01:32:31;3.53;;;2.90;;
27558;SDS011;15002;52.028;5.670;2023-01-08T01:34:57;6.00;;;3.05;;
27558;SDS011;15002;52.028;5.670;2023-01-08T01:37:22;5.82;;;3.17;;
27558;SDS011;15002;52.028;5.670;2023-01-08T01:39:48;5.95;;;3.53;;
27558;SDS011;15002;52.028;5.670;2023-01-08T01:42:14;8.90;;;3.80;;
27558;SDS011;15002;52.028;5.670;2023-01-08T01:45:00;8.00;;;3.10;;
27558;SDS011;15002;52.028;5.670;2023-01-08T01:47:38;8.00;;;3.40;;
27558;SDS011;15002;52.028;5.670;2023-01-08T01:52:40;7.72;;;3.13;;
27558;SDS011;15002;52.028;5.670;2023-01-08T01:55:26;5.25;;;3.20;;
27558;SDS011;15002;52.028;5.670;2023-01-08T01:58:07;5.75;;;3.20;;
27558;SDS011;15002;52.028;5.670;2023-01-08T02:00:40;4.70;;;3.10;;
27558;SDS011;15002;52.028;5.670;2023-01-08T02:03:06;6.07;;;3.00;;
27558;SDS011;15002;52.028;5.670;2023-01-08T02:05:51;4.85;;;3.22;;
27558;SDS011;15002;52.028;5.670;2023-01-08T02:17:09;3.80;;;2.00;;
27558;SDS011;15002;52.028;5.670;2023-01-08T02:19:50;3.13;;;2.35;;
27558;SDS011;15002;52.028;5.670;2023-01-08T02:25:38;3.10;;;1.80;;
27558;SDS011;15002;52.028;5.670;2023-01-08T02:28:17;3.38;;;1.00;;
27558;SDS011;15002;52.028;5.670;2023-01-08T02:30:43;2.28;;;1.02;;
27558;SDS011;15002;52.028;5.670;2023-01-08T02:33:10;3.33;;;1.00;;
27558;SDS011;15002;52.028;5.670;2023-01-08T02:35:40;2.08;;;1.17;;
27558;SDS011;15002;52.028;5.670;2023-01-08T02:38:10;3.47;;;1.30;;
27558;SDS011;15002;52.028;5.670;2023-01-08T02:40:48;1.08;;;0.90;;
27558;SDS011;15002;52.028;5.670;2023-01-08T02:43:25;3.53;;;1.38;;
27558;SDS011;15002;52.028;5.670;2023-01-08T02:45:58;2.55;;;1.50;;
27558;SDS011;15002;52.028;5.670;2023-01-08T02:51:12;3.22;;;1.30;;
27558;SDS011;15002;52.028;5.670;2023-01-08T02:53:49;3.45;;;1.55;;
27558;SDS011;15002;52.028;5.670;2023-01-08T02:56:21;4.93;;;1.70;;
27558;SDS011;15002;52.028;5.670;2023-01-08T02:58:51;3.60;;;1.70;;
27558;SDS011;15002;52.028;5.670;2023-01-08T03:01:19;4.28;;;2.05;;
27558;SDS011;15002;52.028;5.670;2023-01-08T03:03:48;6.13;;;2.33;;
27558;SDS011;15002;52.028;5.670;2023-01-08T03:06:17;3.60;;;2.00;;
27558;SDS011;15002;52.028;5.670;2023-01-08T03:08:47;4.43;;;2.45;;
27558;SDS011;15002;52.028;5.670;2023-01-08T03:11:16;6.57;;;2.75;;
27558;SDS011;15002;52.028;5.670;2023-01-08T03:13:44;5.47;;;3.10;;
27558;SDS011;15002;52.028;5.670;2023-01-08T03:16:15;5.38;;;3.17;;
27558;SDS011;15002;52.028;5.670;2023-01-08T03:18:50;4.90;;;3.00;;
27558;SDS011;15002;52.028;5.670;2023-01-08T03:21:18;6.75;;;3.38;;
27558;SDS011;15002;52.028;5.670;2023-01-08T03:23:46;5.15;;;3.67;;
27558;SDS011;15002;52.028;5.670;2023-01-08T03:26:14;8.30;;;3.58;;
27558;SDS011;15002;52.028;5.670;2023-01-08T03:28:44;6.10;;;3.33;;
27558;SDS011;15002;52.028;5.670;2023-01-08T03:31:13;6.45;;;2.95;;
27558;SDS011;15002;52.028;5.670;2023-01-08T03:33:40;4.20;;;2.58;;
27558;SDS011;15002;52.028;5.670;2023-01-08T03:36:09;6.38;;;2.33;;
27558;SDS011;15002;52.028;5.670;2023-01-08T03:38:47;4.97;;;2.40;;
27558;SDS011;15002;52.028;5.670;2023-01-08T03:43:48;3.90;;;1.70;;
27558;SDS011;15002;52.028;5.670;2023-01-08T03:46:21;3.03;;;1.40;;
27558;SDS011;15002;52.028;5.670;2023-01-08T03:48:53;4.40;;;1.25;;
27558;SDS011;15002;52.028;5.670;2023-01-08T03:51:19;7.47;;;1.23;;
27558;SDS011;15002;52.028;5.670;2023-01-08T03:53:45;5.65;;;1.33;;
27558;SDS011;15002;52.028;5.670;2023-01-08T03:56:11;4.82;;;0.85;;
27558;SDS011;15002;52.028;5.670;2023-01-08T03:58:37;2.42;;;1.02;;
27558;SDS011;15002;52.028;5.670;2023-01-08T04:01:02;6.18;;;1.08;;
27558;SDS011;15002;52.028;5.670;2023-01-08T04:03:28;3.72;;;1.10;;
27558;SDS011;15002;52.028;5.670;2023-01-08T04:05:54;3.33;;;0.80;;
27558;SDS011;15002;52.028;5.670;2023-01-08T04:08:22;4.68;;;0.57;;
27558;SDS011;15002;52.028;5.670;2023-01-08T04:10:48;3.47;;;0.90;;
27558;SDS011;15002;52.028;5.670;2023-01-08T04:13:13;2.95;;;0.80;;
27558;SDS011;15002;52.028;5.670;2023-01-08T04:15:39;4.63;;;1.00;;
27558;SDS011;15002;52.028;5.670;2023-01-08T04:18:05;3.95;;;0.73;;
27558;SDS011;15002;52.028;5.670;2023-01-08T04:20:30;3.97;;;0.70;;
27558;SDS011;15002;52.028;5.670;2023-01-08T04:22:56;4.10;;;0.70;;
27558;SDS011;15002;52.028;5.670;2023-01-08T04:25:21;4.75;;;0.77;;
27558;SDS011;15002;52.028;5.670;2023-01-08T04:27:47;2.85;;;0.50;;
27558;SDS011;15002;52.028;5.670;2023-01-08T04:30:13;4.50;;;0.73;;
27558;SDS011;15002;52.028;5.670;2023-01-08T04:32:38;3.88;;;0.68;;
27558;SDS011;15002;52.028;5.670;2023-01-08T04:35:04;1.63;;;0.43;;
27558;SDS011;15002;52.028;5.670;2023-01-08T04:37:30;6.90;;;0.98;;
27558;SDS011;15002;52.028;5.670;2023-01-08T04:39:55;5.55;;;0.73;;
27558;SDS011;15002;52.028;5.670;2023-01-08T04:42:21;3.35;;;0.60;;
27558;SDS011;15002;52.028;5.670;2023-01-08T04:44:47;3.08;;;0.70;;
27558;SDS011;15002;52.028;5.670;2023-01-08T04:47:12;2.38;;;0.55;;
27558;SDS011;15002;52.028;5.670;2023-01-08T04:49:38;5.13;;;0.80;;
27558;SDS011;15002;52.028;5.670;2023-01-08T04:52:04;3.97;;;0.80;;
27558;SDS011;15002;52.028;5.670;2023-01-08T04:54:29;3.20;;;0.90;;
27558;SDS011;15002;52.028;5.670;2023-01-08T04:56:55;3.92;;;1.00;;
27558;SDS011;15002;52.028;5.670;2023-01-08T04:59:21;6.72;;;1.42;;
27558;SDS011;15002;52.028;5.670;2023-01-08T05:01:47;2.97;;;1.00;;
27558;SDS011;15002;52.028;5.670;2023-01-08T05:04:12;3.58;;;0.77;;
27558;SDS011;15002;52.028;5.670;2023-01-08T05:06:38;5.03;;;1.13;;
27558;SDS011;15002;52.028;5.670;2023-01-08T05:09:03;4.30;;;1.00;;
27558;SDS011;15002;52.028;5.670;2023-01-08T05:11:29;5.68;;;1.10;;
27558;SDS011;15002;52.028;5.670;2023-01-08T05:13:55;5.18;;;0.85;;
27558;SDS011;15002;52.028;5.670;2023-01-08T05:16:21;5.70;;;1.00;;
27558;SDS011;15002;52.028;5.670;2023-01-08T05:18:47;4.47;;;1.00;;
27558;SDS011;15002;52.028;5.670;2023-01-08T05:21:13;2.25;;;1.00;;
27558;SDS011;15002;52.028;5.670;2023-01-08T05:23:42;2.28;;;0.98;;
27558;SDS011;15002;52.028;5.670;2023-01-08T05:26:09;6.20;;;1.07;;
27558;SDS011;15002;52.028;5.670;2023-01-08T05:28:35;7.80;;;1.05;;
27558;SDS011;15002;52.028;5.670;2023-01-08T05:31:00;3.45;;;1.05;;
27558;SDS011;15002;52.028;5.670;2023-01-08T05:33:26;5.32;;;1.38;;
27558;SDS011;15002;52.028;5.670;2023-01-08T05:35:52;6.70;;;1.45;;
27558;SDS011;15002;52.028;5.670;2023-01-08T05:38:17;4.40;;;1.00;;
27558;SDS011;15002;52.028;5.670;2023-01-08T05:40:43;5.55;;;1.52;;
27558;SDS011;15002;52.028;5.670;2023-01-08T05:43:09;4.20;;;1.30;;
27558;SDS011;15002;52.028;5.670;2023-01-08T05:45:35;5.03;;;1.50;;
27558;SDS011;15002;52.028;5.670;2023-01-08T05:48:04;10.18;;;1.48;;
27558;SDS011;15002;52.028;5.670;2023-01-08T05:50:31;5.70;;;1.60;;
27558;SDS011;15002;52.028;5.670;2023-01-08T05:52:57;4.72;;;1.63;;
27558;SDS011;15002;52.028;5.670;2023-01-08T05:55:23;4.28;;;1.80;;
27558;SDS011;15002;52.028;5.670;2023-01-08T05:57:49;6.40;;;1.45;;
27558;SDS011;15002;52.028;5.670;2023-01-08T06:00:15;3.42;;;1.70;;
27558;SDS011;15002;52.028;5.670;2023-01-08T06:02:44;6.10;;;1.98;;
27558;SDS011;15002;52.028;5.670;2023-01-08T06:05:11;4.30;;;1.58;;
27558;SDS011;15002;52.028;5.670;2023-01-08T06:07:37;5.45;;;1.95;;
27558;SDS011;15002;52.028;5.670;2023-01-08T06:10:03;6.43;;;2.10;;
27558;SDS011;15002;52.028;5.670;2023-01-08T06:12:28;5.43;;;1.58;;
27558;SDS011;15002;52.028;5.670;2023-01-08T06:14:54;7.78;;;1.80;;
27558;SDS011;15002;52.028;5.670;2023-01-08T06:17:20;7.75;;;2.55;;
27558;SDS011;15002;52.028;5.670;2023-01-08T06:19:45;5.95;;;1.70;;
27558;SDS011;15002;52.028;5.670;2023-01-08T06:22:12;5.95;;;1.88;;
27558;SDS011;15002;52.028;5.670;2023-01-08T06:24:38;5.32;;;1.58;;
27558;SDS011;15002;52.028;5.670;2023-01-08T06:27:03;6.63;;;1.83;;
27558;SDS011;15002;52.028;5.670;2023-01-08T06:29:29;4.80;;;1.55;;
27558;SDS011;15002;52.028;5.670;2023-01-08T06:31:55;2.28;;;1.60;;
27558;SDS011;15002;52.028;5.670;2023-01-08T06:34:20;4.07;;;1.50;;
27558;SDS011;15002;52.028;5.670;2023-01-08T06:36:46;5.35;;;1.63;;
27558;SDS011;15002;52.028;5.670;2023-01-08T06:39:11;1.73;;;1.13;;
27558;SDS011;15002;52.028;5.670;2023-01-08T06:41:37;3.17;;;0.90;;
27558;SDS011;15002;52.028;5.670;2023-01-08T06:44:03;3.40;;;1.25;;
27558;SDS011;15002;52.028;5.670;2023-01-08T06:46:29;5.20;;;1.40;;
27558;SDS011;15002;52.028;5.670;2023-01-08T06:48:54;4.82;;;1.40;;
27558;SDS011;15002;52.028;5.670;2023-01-08T06:51:20;4.28;;;1.70;;
27558;SDS011;15002;52.028;5.670;2023-01-08T06:53:48;5.53;;;1.90;;
27558;SDS011;15002;52.028;5.670;2023-01-08T06:56:14;2.33;;;1.38;;
27558;SDS011;15002;52.028;5.670;2023-01-08T06:58:40;5.35;;;1.63;;
27558;SDS011;15002;52.028;5.670;2023-01-08T07:01:05;6.47;;;1.60;;
27558;SDS011;15002;52.028;5.670;2023-01-08T07:03:31;3.50;;;1.52;;
27558;SDS011;15002;52.028;5.670;2023-01-08T07:05:57;2.22;;;1.60;;
27558;SDS011;15002;52.028;5.670;2023-01-08T07:08:22;7.05;;;1.70;;
27558;SDS011;15002;52.028;5.670;2023-01-08T07:10:48;3.35;;;1.52;;
27558;SDS011;15002;52.028;5.670;2023-01-08T07:13:14;2.35;;;1.30;;
27558;SDS011;15002;52.028;5.670;2023-01-08T07:15:40;3.50;;;1.40;;
27558;SDS011;15002;52.028;5.670;2023-01-08T07:18:07;4.15;;;1.60;;
27558;SDS011;15002;52.028;5.670;2023-01-08T07:20:34;4.30;;;1.35;;
27558;SDS011;15002;52.028;5.670;2023-01-08T07:23:10;9.73;;;1.80;;
27558;SDS011;15002;52.028;5.670;2023-01-08T07:25:36;8.48;;;1.45;;
27558;SDS011;15002;52.028;5.670;2023-01-08T07:28:01;3.67;;;1.33;;
27558;SDS011;15002;52.028;5.670;2023-01-08T07:30:27;2.28;;;1.27;;
27558;SDS011;15002;52.028;5.670;2023-01-08T07:32:56;6.70;;;2.38;;
27558;SDS011;15002;52.028;5.670;2023-01-08T07:35:23;5.68;;;0.98;;
27558;SDS011;15002;52.028;5.670;2023-01-08T07:37:49;3.35;;;1.40;;
27558;SDS011;15002;52.028;5.670;2023-01-08T07:40:14;5.63;;;1.38;;
27558;SDS011;15002;52.028;5.670;2023-01-08T07:42:40;4.57;;;1.27;;
27558;SDS011;15002;52.028;5.670;2023-01-08T07:45:06;4.47;;;1.35;;
27558;SDS011;15002;52.028;5.670;2023-01-08T07:47:32;4.45;;;1.70;;
27558;SDS011;15002;52.028;5.670;2023-01-08T07:49:57;6.47;;;2.80;;
27558;SDS011;15002;52.028;5.670;2023-01-08T07:52:23;6.43;;;2.17;;
27558;SDS011;15002;52.028;5.670;2023-01-08T07:54:49;5.18;;;1.85;;
27558;SDS011;15002;52.028;5.670;2023-01-08T07:57:14;4.68;;;1.52;;
27558;SDS011;15002;52.028;5.670;2023-01-08T07:59:40;8.43;;;1.92;;
27558;SDS011;15002;52.028;5.670;2023-01-08T08:02:05;10.15;;;2.70;;
27558;SDS011;15002;52.028;5.670;2023-01-08T08:04:31;11.50;;;2.17;;
27558;SDS011;15002;52.028;5.670;2023-01-08T08:06:57;6.68;;;1.50;;
27558;SDS011;15002;52.028;5.670;2023-01-08T08:09:23;3.88;;;1.17;;
27558;SDS011;15002;52.028;5.670;2023-01-08T08:11:49;11.45;;;1.83;;
27558;SDS011;15002;52.028;5.670;2023-01-08T08:14:15;8.48;;;1.83;;
27558;SDS011;15002;52.028;5.670;2023-01-08T08:16:41;8.05;;;1.35;;
27558;SDS011;15002;52.028;5.670;2023-01-08T08:19:06;6.72;;;1.45;;
27558;SDS011;15002;52.028;5.670;2023-01-08T08:21:32;8.73;;;1.65;;
27558;SDS011;15002;52.028;5.670;2023-01-08T08:23:58;9.48;;;1.30;;
27558;SDS011;15002;52.028;5.670;2023-01-08T08:26:23;6.88;;;1.38;;
27558;SDS011;15002;52.028;5.670;2023-01-08T08:28:49;9.32;;;1.65;;
27558;SDS011;15002;52.028;5.670;2023-01-08T08:31:15;7.38;;;1.40;;
27558;SDS011;15002;52.028;5.670;2023-01-08T08:33:41;10.73;;;1.40;;
27558;SDS011;15002;52.028;5.670;2023-01-08T08:36:06;5.63;;;1.65;;
27558;SDS011;15002;52.028;5.670;2023-01-08T08:38:33;6.40;;;1.42;;
27558;SDS011;15002;52.028;5.670;2023-01-08T08:41:00;8.05;;;1.55;;
27558;SDS011;15002;52.028;5.670;2023-01-08T08:43:26;10.02;;;1.67;;
27558;SDS011;15002;52.028;5.670;2023-01-08T08:45:53;10.82;;;1.75;;
27558;SDS011;15002;52.028;5.670;2023-01-08T08:48:20;6.68;;;1.65;;
27558;SDS011;15002;52.028;5.670;2023-01-08T08:50:46;5.80;;;1.90;;
27558;SDS011;15002;52.028;5.670;2023-01-08T08:53:11;11.75;;;2.03;;
27558;SDS011;15002;52.028;5.670;2023-01-08T08:55:37;6.57;;;1.60;;
27558;SDS011;15002;52.028;5.670;2023-01-08T08:58:03;6.55;;;2.05;;
27558;SDS011;15002;52.028;5.670;2023-01-08T09:00:31;6.35;;;1.70;;
27558;SDS011;15002;52.028;5.670;2023-01-08T09:02:57;5.97;;;1.65;;
27558;SDS011;15002;52.028;5.670;2023-01-08T09:05:22;8.02;;;1.65;;
27558;SDS011;15002;52.028;5.670;2023-01-08T09:07:48;8.35;;;1.73;;
27558;SDS011;15002;52.028;5.670;2023-01-08T09:10:14;5.85;;;1.60;;
27558;SDS011;15002;52.028;5.670;2023-01-08T09:12:40;9.43;;;1.67;;
27558;SDS011;15002;52.028;5.670;2023-01-08T09:15:05;7.43;;;1.60;;
27558;SDS011;15002;52.028;5.670;2023-01-08T09:17:32;7.25;;;1.70;;
27558;SDS011;15002;52.028;5.670;2023-01-08T09:19:58;7.03;;;1.95;;
27558;SDS011;15002;52.028;5.670;2023-01-08T09:22:23;7.90;;;1.88;;
27558;SDS011;15002;52.028;5.670;2023-01-08T09:24:49;6.93;;;1.70;;
27558;SDS011;15002;52.028;5.670;2023-01-08T09:27:14;9.80;;;1.50;;
27558;SDS011;15002;52.028;5.670;2023-01-08T09:29:40;9.40;;;1.50;;
27558;SDS011;15002;52.028;5.670;2023-01-08T09:32:06;6.85;;;1.73;;
27558;SDS011;15002;52.028;5.670;2023-01-08T09:34:32;10.10;;;1.88;;
27558;SDS011;15002;52.028;5.670;2023-01-08T09:37:00;8.30;;;1.73;;
27558;SDS011;15002;52.028;5.670;2023-01-08T09:39:26;8.65;;;1.65;;
27558;SDS011;15002;52.028;5.670;2023-01-08T09:41:51;8.40;;;1.30;;
27558;SDS011;15002;52.028;5.670;2023-01-08T09:44:23;12.68;;;1.67;;
27558;SDS011;15002;52.028;5.670;2023-01-08T09:46:52;11.32;;;1.45;;
27558;SDS011;15002;52.028;5.670;2023-01-08T09:49:27;8.32;;;1.70;;
27558;SDS011;15002;52.028;5.670;2023-01-08T09:52:14;9.35;;;1.52;;
27558;SDS011;15002;52.028;5.670;2023-01-08T09:54:40;8.52;;;1.70;;
27558;SDS011;15002;52.028;5.670;2023-01-08T09:57:09;5.35;;;1.85;;
27558;SDS011;15002;52.028;5.670;2023-01-08T09:59:44;9.30;;;1.73;;
27558;SDS011;15002;52.028;5.670;2023-01-08T10:02:14;5.57;;;1.40;;
27558;SDS011;15002;52.028;5.670;2023-01-08T10:04:42;7.22;;;1.20;;
27558;SDS011;15002;52.028;5.670;2023-01-08T10:07:16;12.05;;;1.70;;
27558;SDS011;15002;52.028;5.670;2023-01-08T10:09:48;4.03;;;1.23;;
27558;SDS011;15002;52.028;5.670;2023-01-08T10:12:15;7.07;;;1.75;;
27558;SDS011;15002;52.028;5.670;2023-01-08T10:14:48;7.47;;;1.42;;
27558;SDS011;15002;52.028;5.670;2023-01-08T10:20:07;8.32;;;1.80;;
27558;SDS011;15002;52.028;5.670;2023-01-08T10:22:38;8.32;;;2.20;;
27558;SDS011;15002;52.028;5.670;2023-01-08T10:25:05;5.05;;;1.63;;
27558;SDS011;15002;52.028;5.670;2023-01-08T10:27:47;9.02;;;1.80;;
27558;SDS011;15002;52.028;5.670;2023-01-08T10:30:15;7.55;;;1.73;;
27558;SDS011;15002;52.028;5.670;2023-01-08T10:32:52;8.80;;;1.67;;
27558;SDS011;15002;52.028;5.670;2023-01-08T10:35:21;8.02;;;2.05;;
27558;SDS011;15002;52.028;5.670;2023-01-08T10:37:53;9.73;;;1.48;;
27558;SDS011;15002;52.028;5.670;2023-01-08T10:40:38;7.28;;;1.60;;
27558;SDS011;15002;52.028;5.670;2023-01-08T10:45:56;5.93;;;2.22;;
27558;SDS011;15002;52.028;5.670;2023-01-08T10:48:28;8.27;;;1.45;;
27558;SDS011;15002;52.028;5.670;2023-01-08T10:53:42;3.92;;;1.50;;
27558;SDS011;15002;52.028;5.670;2023-01-08T10:58:50;6.75;;;1.80;;
27558;SDS011;15002;52.028;5.670;2023-01-08T11:03:57;6.90;;;1.85;;
27558;SDS011;15002;52.028;5.670;2023-01-08T11:06:29;10.30;;;1.70;;
27558;SDS011;15002;52.028;5.670;2023-01-08T11:09:01;5.20;;;1.90;;
27558;SDS011;15002;52.028;5.670;2023-01-08T11:11:31;5.60;;;1.50;;
27558;SDS011;15002;52.028;5.670;2023-01-08T11:14:00;9.02;;;1.65;;
27558;SDS011;15002;52.028;5.670;2023-01-08T11:16:38;7.50;;;2.17;;
27558;SDS011;15002;52.028;5.670;2023-01-08T11:19:12;5.25;;;1.50;;
27558;SDS011;15002;52.028;5.670;2023-01-08T11:21:58;7.18;;;1.80;;
27558;SDS011;15002;52.028;5.670;2023-01-08T11:24:29;8.40;;;1.80;;
27558;SDS011;15002;52.028;5.670;2023-01-08T11:27:05;6.97;;;1.35;;
27558;SDS011;15002;52.028;5.670;2023-01-08T11:32:54;7.07;;;1.40;;
27558;SDS011;15002;52.028;5.670;2023-01-08T11:35:30;4.72;;;1.30;;
27558;SDS011;15002;52.028;5.670;2023-01-08T11:38:03;6.57;;;1.50;;
27558;SDS011;15002;52.028;5.670;2023-01-08T11:40:41;8.98;;;1.73;;
27558;SDS011;15002;52.028;5.670;2023-01-08T11:57:25;5.35;;;1.77;;
27558;SDS011;15002;52.028;5.670;2023-01-08T12:00:21;4.13;;;1.63;;
27558;SDS011;15002;52.028;5.670;2023-01-08T12:11:25;3.90;;;1.42;;
27558;SDS011;15002;52.028;5.670;2023-01-08T12:32:38;2.58;;;0.68;;
27558;SDS011;15002;52.028;5.670;2023-01-08T12:35:46;2.30;;;0.80;;
27558;SDS011;15002;52.028;5.670;2023-01-08T12:38:19;2.75;;;0.80;;
27558;SDS011;15002;52.028;5.670;2023-01-08T12:43:24;1.65;;;0.60;;
27558;SDS011;15002;52.028;5.670;2023-01-08T12:45:58;2.22;;;0.60;;
27558;SDS011;15002;52.028;5.670;2023-01-08T12:48:27;1.10;;;0.82;;
27558;SDS011;15002;52.028;5.670;2023-01-08T12:50:56;2.00;;;0.63;;
27558;SDS011;15002;52.028;5.670;2023-01-08T12:56:21;2.53;;;0.60;;
27558;SDS011;15002;52.028;5.670;2023-01-08T12:59:14;1.90;;;0.70;;
27558;SDS011;15002;52.028;5.670;2023-01-08T13:04:10;2.45;;;0.40;;
27558;SDS011;15002;52.028;5.670;2023-01-08T13:06:37;2.28;;;0.50;;
27558;SDS011;15002;52.028;5.670;2023-01-08T13:09:25;1.88;;;0.70;;
27558;SDS011;15002;52.028;5.670;2023-01-08T13:11:52;2.60;;;0.80;;
27558;SDS011;15002;52.028;5.670;2023-01-08T13:14:20;0.98;;;0.40;;
27558;SDS011;15002;52.028;5.670;2023-01-08T13:16:46;3.00;;;0.75;;
27558;SDS011;15002;52.028;5.670;2023-01-08T13:19:26;1.75;;;0.60;;
27558;SDS011;15002;52.028;5.670;2023-01-08T13:22:22;1.48;;;0.70;;
27558;SDS011;15002;52.028;5.670;2023-01-08T13:25:07;4.03;;;0.70;;
27558;SDS011;15002;52.028;5.670;2023-01-08T13:27:38;3.17;;;0.68;;
27558;SDS011;15002;52.028;5.670;2023-01-08T13:30:28;1.25;;;0.73;;
27558;SDS011;15002;52.028;5.670;2023-01-08T13:38:39;2.15;;;0.70;;
27558;SDS011;15002;52.028;5.670;2023-01-08T13:41:05;3.88;;;1.02;;
27558;SDS011;15002;52.028;5.670;2023-01-08T13:43:48;3.95;;;1.00;;
27558;SDS011;15002;52.028;5.670;2023-01-08T13:46:19;2.35;;;0.93;;
27558;SDS011;15002;52.028;5.670;2023-01-08T13:56:37;3.25;;;1.20;;
27558;SDS011;15002;52.028;5.670;2023-01-08T13:59:04;2.72;;;0.70;;
27558;SDS011;15002;52.028;5.670;2023-01-08T14:01:30;2.33;;;1.25;;
27558;SDS011;15002;52.028;5.670;2023-01-08T14:03:56;2.63;;;0.98;;
27558;SDS011;15002;52.028;5.670;2023-01-08T14:06:23;5.28;;;1.13;;
27558;SDS011;15002;52.028;5.670;2023-01-08T14:08:54;3.80;;;0.90;;
27558;SDS011;15002;52.028;5.670;2023-01-08T14:11:21;3.05;;;1.05;;
27558;SDS011;15002;52.028;5.670;2023-01-08T14:13:56;12.88;;;1.10;;
27558;SDS011;15002;52.028;5.670;2023-01-08T14:16:22;3.28;;;1.20;;
27558;SDS011;15002;52.028;5.670;2023-01-08T14:18:48;3.20;;;1.40;;
27558;SDS011;15002;52.028;5.670;2023-01-08T14:21:15;2.00;;;0.85;;
27558;SDS011;15002;52.028;5.670;2023-01-08T14:23:46;5.88;;;1.25;;
27558;SDS011;15002;52.028;5.670;2023-01-08T14:26:25;8.32;;;1.58;;
27558;SDS011;15002;52.028;5.670;2023-01-08T14:29:02;3.53;;;1.60;;
27558;SDS011;15002;52.028;5.670;2023-01-08T14:31:28;8.82;;;2.70;;
27558;SDS011;15002;52.028;5.670;2023-01-08T14:33:55;8.65;;;1.40;;
27558;SDS011;15002;52.028;5.670;2023-01-08T14:36:23;4.97;;;1.88;;
27558;SDS011;15002;52.028;5.670;2023-01-08T14:38:49;5.00;;;1.45;;
27558;SDS011;15002;52.028;5.670;2023-01-08T14:41:37;5.57;;;1.30;;
27558;SDS011;15002;52.028;5.670;2023-01-08T14:44:22;4.00;;;1.20;;
27558;SDS011;15002;52.028;5.670;2023-01-08T14:46:52;4.90;;;1.50;;
27558;SDS011;15002;52.028;5.670;2023-01-08T14:49:24;6.50;;;1.20;;
27558;SDS011;15002;52.028;5.670;2023-01-08T14:51:52;5.95;;;1.60;;
27558;SDS011;15002;52.028;5.670;2023-01-08T14:54:21;6.22;;;1.42;;
27558;SDS011;15002;52.028;5.670;2023-01-08T14:56:51;7.45;;;1.50;;
27558;SDS011;15002;52.028;5.670;2023-01-08T14:59:19;3.42;;;1.10;;
27558;SDS011;15002;52.028;5.670;2023-01-08T15:01:50;6.63;;;1.30;;
27558;SDS011;15002;52.028;5.670;2023-01-08T15:04:19;4.47;;;1.42;;
27558;SDS011;15002;52.028;5.670;2023-01-08T15:06:47;7.40;;;1.90;;
27558;SDS011;15002;52.028;5.670;2023-01-08T15:09:24;6.60;;;1.55;;
27558;SDS011;15002;52.028;5.670;2023-01-08T15:11:58;5.35;;;1.50;;
27558;SDS011;15002;52.028;5.670;2023-01-08T15:14:27;7.47;;;1.50;;
27558;SDS011;15002;52.028;5.670;2023-01-08T15:16:58;5.32;;;1.65;;
27558;SDS011;15002;52.028;5.670;2023-01-08T15:19:44;8.48;;;2.20;;
27558;SDS011;15002;52.028;5.670;2023-01-08T15:22:32;8.32;;;1.60;;
27558;SDS011;15002;52.028;5.670;2023-01-08T15:25:00;4.47;;;1.90;;
27558;SDS011;15002;52.028;5.670;2023-01-08T15:27:28;4.90;;;1.50;;
27558;SDS011;15002;52.028;5.670;2023-01-08T15:30:01;7.18;;;1.90;;
27558;SDS011;15002;52.028;5.670;2023-01-08T15:32:29;5.85;;;2.03;;
27558;SDS011;15002;52.028;5.670;2023-01-08T15:35:01;5.15;;;1.70;;
27558;SDS011;15002;52.028;5.670;2023-01-08T15:37:49;7.68;;;2.25;;
27558;SDS011;15002;52.028;5.670;2023-01-08T15:40:15;6.80;;;1.77;;
27558;SDS011;15002;52.028;5.670;2023-01-08T15:42:42;6.80;;;1.70;;
27558;SDS011;15002;52.028;5.670;2023-01-08T15:45:27;7.90;;;1.63;;
27558;SDS011;15002;52.028;5.670;2023-01-08T15:47:55;3.13;;;1.33;;
27558;SDS011;15002;52.028;5.670;2023-01-08T15:50:20;8.63;;;1.60;;
27558;SDS011;15002;52.028;5.670;2023-01-08T15:52:47;4.22;;;1.10;;
27558;SDS011;15002;52.028;5.670;2023-01-08T15:55:16;9.98;;;1.60;;
27558;SDS011;15002;52.028;5.670;2023-01-08T15:57:46;8.45;;;1.77;;
27558;SDS011;15002;52.028;5.670;2023-01-08T16:00:13;2.97;;;1.40;;
27558;SDS011;15002;52.028;5.670;2023-01-08T16:02:49;4.80;;;1.60;;
27558;SDS011;15002;52.028;5.670;2023-01-08T16:05:17;5.20;;;1.25;;
27558;SDS011;15002;52.028;5.670;2023-01-08T16:07:43;5.60;;;1.90;;
27558;SDS011;15002;52.028;5.670;2023-01-08T16:10:15;3.42;;;1.27;;
27558;SDS011;15002;52.028;5.670;2023-01-08T16:12:42;3.10;;;1.00;;
27558;SDS011;15002;52.028;5.670;2023-01-08T16:15:08;8.93;;;1.60;;
27558;SDS011;15002;52.028;5.670;2023-01-08T16:17:34;4.18;;;1.45;;
27558;SDS011;15002;52.028;5.670;2023-01-08T16:20:01;9.02;;;1.85;;
27558;SDS011;15002;52.028;5.670;2023-01-08T16:22:30;6.07;;;1.15;;
27558;SDS011;15002;52.028;5.670;2023-01-08T16:24:55;3.92;;;1.40;;
27558;SDS011;15002;52.028;5.670;2023-01-08T16:27:21;3.90;;;1.40;;
27558;SDS011;15002;52.028;5.670;2023-01-08T16:29:47;3.05;;;1.42;;
27558;SDS011;15002;52.028;5.670;2023-01-08T16:32:13;2.20;;;1.40;;
27558;SDS011;15002;52.028;5.670;2023-01-08T16:34:38;4.50;;;1.80;;
27558;SDS011;15002;52.028;5.670;2023-01-08T16:37:04;5.25;;;1.70;;
27558;SDS011;15002;52.028;5.670;2023-01-08T16:39:30;8.55;;;2.17;;